Tyrone, NY (14887)

8:25 AM EDT on May 22, 2015 (GMT -0400)
FingerLakes | | Change Station
CLOSE
Current Station
Personal Weather Station
Location: Waneta Lake, NY
Elevation: 1099 ft
Nearby Weather Stations
Active Advisory: Freeze Warning

Elev 1099 ft 42.46 °N, 77.10 °W | Updated 24 seconds ago

Mostly Cloudy
Mostly Cloudy
53.2 °F
Feels Like 53.2 °F
N
3.5
Wind Variable Wind from WNW
Gusts 3.5 mph

Today
High -- | Low -- °F
--% Chance of Precip.
Yesterday
High -- | Low -- °F
Precip. -- in
5:40 AM 8:29 PM
Waxing Crescent, 21% visible
Pressure 29.96 in
Visibility 10.0 miles
Clouds Scattered Clouds 7000 ft
Dew Point 42 °F
Humidity 67%
Rainfall 0.00 in
Snow Depth Not available.
UV 1 out of 12
Pollen 7.80 out of 12
Air Quality Not available.
Flu Activity Widespread
METAR KPEO 221153Z AUTO 29007KT 10SM SCT070 13/03 A2996 RMK AO2 SLP144 T01280028 10128 20100 53025

More Conditions Fewer Conditions

Pressure 29.96 in
Visibility 10.0 miles
Clouds Scattered Clouds 7000 ft
Dew Point 42 °F
Humidity 67%
Rainfall 0.00 in
Snow Depth Not available.
UV 1 out of 12
Pollen 7.80 out of 12
Air Quality Not available.
Flu Activity Widespread
METAR KPEO 221153Z AUTO 29007KT 10SM SCT070 13/03 A2996 RMK AO2 SLP144 T01280028 10128 20100 53025

More Conditions Fewer Conditions

10-Day Weather Forecast

Almanac

Astronomy

May. 22, 2015 Rise Set
Actual Time
Civil Twilight
Nautical Twilight
Astronomical Twilight
Moon
Length of Visible Light
Length of Day
Tomorrow will be .
, % of the Moon is Illuminated

Today's Extremes

State Highs State Lows

Community

WunderPhotos

Upload Photos

1,823,208 photos uploaded!

WunderBlogs® & News

Nearby

Air Quality

  Air Quality AQ Index Pollutant
Not available.

Snow Depth

Station Depth Elevation

Earthquake Activity

City Distance Mag. Time & Date
Minimum magnitude displayed is 2.5.

Coastal Water Temperatures

Place Temperature

Stations

Nearby Weather Stations

Station Location Temp. Windchill Dew Point Humidity Wind Precip. Elev Updated Type
                   
Freeze Warning
Statement as of 3:32 AM EDT on May 22, 2015

... Freeze warning in effect from midnight tonight to 9 am EDT
Saturday...

The National Weather Service in Binghamton has issued a freeze
warning... which is in effect from midnight tonight to 9 am EDT
Saturday. The freeze watch is no longer in effect.

* Locations... twin tier region... eastern Finger Lakes region...
western Mohawk Valley... western Catskills... and the Pocono
Mountain region.

* Temperatures... lows in the low 30s.

* Timing... late Friday night into early Saturday morning.

* Impacts... vegetation that may be impacted by freezing
conditions should be protected.

Precautionary/preparedness actions...

A freeze warning means sub-freezing temperatures are imminent or
highly likely. These conditions will kill crops and other
sensitive vegetation.